sensor_id;sensor_type;location;lat;lon;timestamp;temperature;humidity
5086;DHT22;4715;51.660;7.082;2023-12-04T00:01:05;1.70;99.90
5086;DHT22;4715;51.660;7.082;2023-12-04T00:03:27;1.70;99.90
5086;DHT22;4715;51.660;7.082;2023-12-04T00:05:50;1.70;99.90
5086;DHT22;4715;51.660;7.082;2023-12-04T00:08:12;1.70;99.90
5086;DHT22;4715;51.660;7.082;2023-12-04T00:10:34;1.70;99.90
5086;DHT22;4715;51.660;7.082;2023-12-04T00:12:55;1.70;99.90
5086;DHT22;4715;51.660;7.082;2023-12-04T00:15:19;1.70;99.90
5086;DHT22;4715;51.660;7.082;2023-12-04T00:17:41;1.70;99.90
5086;DHT22;4715;51.660;7.082;2023-12-04T00:20:03;1.70;99.90
5086;DHT22;4715;51.660;7.082;2023-12-04T00:22:27;1.60;99.90
5086;DHT22;4715;51.660;7.082;2023-12-04T00:24:49;1.60;99.90
5086;DHT22;4715;51.660;7.082;2023-12-04T00:27:12;1.60;99.90
5086;DHT22;4715;51.660;7.082;2023-12-04T00:29:34;1.60;99.90
5086;DHT22;4715;51.660;7.082;2023-12-04T00:31:56;1.60;99.90
5086;DHT22;4715;51.660;7.082;2023-12-04T00:34:18;1.60;99.90
5086;DHT22;4715;51.660;7.082;2023-12-04T00:36:40;1.70;99.90
5086;DHT22;4715;51.660;7.082;2023-12-04T00:39:03;1.60;99.90
5086;DHT22;4715;51.660;7.082;2023-12-04T00:41:25;1.70;99.90
5086;DHT22;4715;51.660;7.082;2023-12-04T00:43:47;1.60;99.90
5086;DHT22;4715;51.660;7.082;2023-12-04T00:46:09;1.70;99.90
5086;DHT22;4715;51.660;7.082;2023-12-04T00:48:31;1.70;99.90
5086;DHT22;4715;51.660;7.082;2023-12-04T00:50:54;1.70;99.90
5086;DHT22;4715;51.660;7.082;2023-12-04T00:53:16;1.70;99.90
5086;DHT22;4715;51.660;7.082;2023-12-04T00:55:39;1.70;99.90
5086;DHT22;4715;51.660;7.082;2023-12-04T00:58:02;1.70;99.90
5086;DHT22;4715;51.660;7.082;2023-12-04T01:00:24;1.70;99.90
5086;DHT22;4715;51.660;7.082;2023-12-04T01:02:46;1.70;99.90
5086;DHT22;4715;51.660;7.082;2023-12-04T01:05:08;1.70;99.90
5086;DHT22;4715;51.660;7.082;2023-12-04T01:07:30;1.70;99.90
5086;DHT22;4715;51.660;7.082;2023-12-04T01:09:51;1.70;99.90
5086;DHT22;4715;51.660;7.082;2023-12-04T01:12:14;1.70;99.90
5086;DHT22;4715;51.660;7.082;2023-12-04T01:14:36;1.70;99.90
5086;DHT22;4715;51.660;7.082;2023-12-04T01:16:58;1.70;99.90
5086;DHT22;4715;51.660;7.082;2023-12-04T01:19:20;1.70;99.90
5086;DHT22;4715;51.660;7.082;2023-12-04T01:21:42;1.70;99.90
5086;DHT22;4715;51.660;7.082;2023-12-04T01:24:04;1.70;99.90
5086;DHT22;4715;51.660;7.082;2023-12-04T01:26:27;1.70;99.90
5086;DHT22;4715;51.660;7.082;2023-12-04T01:28:50;1.70;99.90
5086;DHT22;4715;51.660;7.082;2023-12-04T01:31:12;1.70;99.90
5086;DHT22;4715;51.660;7.082;2023-12-04T01:33:34;1.70;99.90
5086;DHT22;4715;51.660;7.082;2023-12-04T01:35:56;1.70;99.90
5086;DHT22;4715;51.660;7.082;2023-12-04T01:38:17;1.70;99.90
5086;DHT22;4715;51.660;7.082;2023-12-04T01:40:39;1.70;99.90
5086;DHT22;4715;51.660;7.082;2023-12-04T01:43:01;1.70;99.90
5086;DHT22;4715;51.660;7.082;2023-12-04T01:45:25;1.70;99.90
5086;DHT22;4715;51.660;7.082;2023-12-04T01:47:47;1.70;99.90
5086;DHT22;4715;51.660;7.082;2023-12-04T01:50:09;1.70;99.90
5086;DHT22;4715;51.660;7.082;2023-12-04T01:52:31;1.70;99.90
5086;DHT22;4715;51.660;7.082;2023-12-04T01:54:53;1.70;99.90
5086;DHT22;4715;51.660;7.082;2023-12-04T01:57:15;1.70;99.90
5086;DHT22;4715;51.660;7.082;2023-12-04T01:59:37;1.70;99.90
5086;DHT22;4715;51.660;7.082;2023-12-04T02:02:00;1.70;99.90
5086;DHT22;4715;51.660;7.082;2023-12-04T02:04:23;1.70;99.90
5086;DHT22;4715;51.660;7.082;2023-12-04T02:06:45;1.70;99.90
5086;DHT22;4715;51.660;7.082;2023-12-04T02:09:07;1.70;99.90
5086;DHT22;4715;51.660;7.082;2023-12-04T02:11:32;1.70;99.90
5086;DHT22;4715;51.660;7.082;2023-12-04T02:13:54;1.70;99.90
5086;DHT22;4715;51.660;7.082;2023-12-04T02:16:18;1.60;99.90
5086;DHT22;4715;51.660;7.082;2023-12-04T02:18:43;1.70;99.90
5086;DHT22;4715;51.660;7.082;2023-12-04T02:21:05;1.70;99.90
5086;DHT22;4715;51.660;7.082;2023-12-04T02:23:28;1.70;99.90
5086;DHT22;4715;51.660;7.082;2023-12-04T02:25:52;1.70;99.90
5086;DHT22;4715;51.660;7.082;2023-12-04T02:28:16;1.70;99.90
5086;DHT22;4715;51.660;7.082;2023-12-04T02:30:42;1.70;99.90
5086;DHT22;4715;51.660;7.082;2023-12-04T02:33:05;1.70;99.90
5086;DHT22;4715;51.660;7.082;2023-12-04T02:35:33;1.70;99.90
5086;DHT22;4715;51.660;7.082;2023-12-04T02:37:56;1.70;99.90
5086;DHT22;4715;51.660;7.082;2023-12-04T02:40:19;1.70;99.90
5086;DHT22;4715;51.660;7.082;2023-12-04T02:42:43;1.60;99.90
5086;DHT22;4715;51.660;7.082;2023-12-04T02:45:07;1.70;99.90
5086;DHT22;4715;51.660;7.082;2023-12-04T02:47:29;1.60;99.90
5086;DHT22;4715;51.660;7.082;2023-12-04T02:49:51;1.60;99.90
5086;DHT22;4715;51.660;7.082;2023-12-04T02:52:13;1.70;99.90
5086;DHT22;4715;51.660;7.082;2023-12-04T02:54:36;1.60;99.90
5086;DHT22;4715;51.660;7.082;2023-12-04T02:56:57;1.60;99.90
5086;DHT22;4715;51.660;7.082;2023-12-04T02:59:22;1.70;99.90
5086;DHT22;4715;51.660;7.082;2023-12-04T03:01:44;1.70;99.90
5086;DHT22;4715;51.660;7.082;2023-12-04T03:04:06;1.70;99.90
5086;DHT22;4715;51.660;7.082;2023-12-04T03:06:28;1.70;99.90
5086;DHT22;4715;51.660;7.082;2023-12-04T03:08:49;1.70;99.90
5086;DHT22;4715;51.660;7.082;2023-12-04T03:11:11;1.70;99.90
5086;DHT22;4715;51.660;7.082;2023-12-04T03:13:33;1.70;99.90
5086;DHT22;4715;51.660;7.082;2023-12-04T03:15:57;1.70;99.90
5086;DHT22;4715;51.660;7.082;2023-12-04T03:18:18;1.70;99.90
5086;DHT22;4715;51.660;7.082;2023-12-04T03:20:40;1.70;99.90
5086;DHT22;4715;51.660;7.082;2023-12-04T03:23:02;1.70;99.90
5086;DHT22;4715;51.660;7.082;2023-12-04T03:25:26;1.70;99.90
5086;DHT22;4715;51.660;7.082;2023-12-04T03:27:48;1.70;99.90
5086;DHT22;4715;51.660;7.082;2023-12-04T03:30:13;1.70;99.90
5086;DHT22;4715;51.660;7.082;2023-12-04T03:32:36;1.70;99.90
5086;DHT22;4715;51.660;7.082;2023-12-04T03:34:58;1.70;99.90
5086;DHT22;4715;51.660;7.082;2023-12-04T03:37:20;1.70;99.90
5086;DHT22;4715;51.660;7.082;2023-12-04T03:39:43;1.70;99.90
5086;DHT22;4715;51.660;7.082;2023-12-04T03:42:06;1.70;99.90
5086;DHT22;4715;51.660;7.082;2023-12-04T03:44:28;1.70;99.90
5086;DHT22;4715;51.660;7.082;2023-12-04T03:46:50;1.70;99.90
5086;DHT22;4715;51.660;7.082;2023-12-04T03:49:14;1.80;99.90
5086;DHT22;4715;51.660;7.082;2023-12-04T03:51:35;1.80;99.90
5086;DHT22;4715;51.660;7.082;2023-12-04T03:53:57;1.80;99.90
5086;DHT22;4715;51.660;7.082;2023-12-04T03:56:18;1.80;99.90
5086;DHT22;4715;51.660;7.082;2023-12-04T03:58:40;1.80;99.90
5086;DHT22;4715;51.660;7.082;2023-12-04T04:01:03;1.80;99.90
5086;DHT22;4715;51.660;7.082;2023-12-04T04:03:25;1.80;99.90
5086;DHT22;4715;51.660;7.082;2023-12-04T04:05:48;1.80;99.90
5086;DHT22;4715;51.660;7.082;2023-12-04T04:08:10;1.90;99.90
5086;DHT22;4715;51.660;7.082;2023-12-04T04:10:31;1.90;99.90
5086;DHT22;4715;51.660;7.082;2023-12-04T04:12:54;1.90;99.90
5086;DHT22;4715;51.660;7.082;2023-12-04T04:15:19;1.90;99.90
5086;DHT22;4715;51.660;7.082;2023-12-04T04:17:41;1.90;99.90
5086;DHT22;4715;51.660;7.082;2023-12-04T04:20:06;1.90;99.90
5086;DHT22;4715;51.660;7.082;2023-12-04T04:22:33;1.90;99.90
5086;DHT22;4715;51.660;7.082;2023-12-04T04:24:58;1.90;99.90
5086;DHT22;4715;51.660;7.082;2023-12-04T04:27:20;1.90;99.90
5086;DHT22;4715;51.660;7.082;2023-12-04T04:29:41;1.90;99.90
5086;DHT22;4715;51.660;7.082;2023-12-04T04:32:04;1.90;99.90
5086;DHT22;4715;51.660;7.082;2023-12-04T04:34:26;1.90;99.90
5086;DHT22;4715;51.660;7.082;2023-12-04T04:36:48;2.00;99.90
5086;DHT22;4715;51.660;7.082;2023-12-04T04:39:13;2.00;99.90
5086;DHT22;4715;51.660;7.082;2023-12-04T04:41:35;2.00;99.90
5086;DHT22;4715;51.660;7.082;2023-12-04T04:43:56;2.00;99.90
5086;DHT22;4715;51.660;7.082;2023-12-04T04:46:18;2.00;99.90
5086;DHT22;4715;51.660;7.082;2023-12-04T04:48:41;2.00;99.90
5086;DHT22;4715;51.660;7.082;2023-12-04T04:51:05;2.00;99.90
5086;DHT22;4715;51.660;7.082;2023-12-04T04:53:28;2.00;99.90
5086;DHT22;4715;51.660;7.082;2023-12-04T04:55:51;2.00;99.90
5086;DHT22;4715;51.660;7.082;2023-12-04T04:58:13;2.00;99.90
5086;DHT22;4715;51.660;7.082;2023-12-04T05:00:35;2.00;99.90
5086;DHT22;4715;51.660;7.082;2023-12-04T05:02:57;2.00;99.90
5086;DHT22;4715;51.660;7.082;2023-12-04T05:05:19;2.00;99.90
5086;DHT22;4715;51.660;7.082;2023-12-04T05:07:41;2.00;99.90
5086;DHT22;4715;51.660;7.082;2023-12-04T05:10:03;1.90;99.90
5086;DHT22;4715;51.660;7.082;2023-12-04T05:12:27;2.00;99.90
5086;DHT22;4715;51.660;7.082;2023-12-04T05:14:49;1.90;99.90
5086;DHT22;4715;51.660;7.082;2023-12-04T05:17:11;1.90;99.90
5086;DHT22;4715;51.660;7.082;2023-12-04T05:19:32;2.00;99.90
5086;DHT22;4715;51.660;7.082;2023-12-04T05:21:54;2.00;99.90
5086;DHT22;4715;51.660;7.082;2023-12-04T05:24:16;2.00;99.90
5086;DHT22;4715;51.660;7.082;2023-12-04T05:26:38;2.00;99.90
5086;DHT22;4715;51.660;7.082;2023-12-04T05:29:05;2.00;99.90
5086;DHT22;4715;51.660;7.082;2023-12-04T05:31:27;2.00;99.90
5086;DHT22;4715;51.660;7.082;2023-12-04T05:33:48;2.00;99.90
5086;DHT22;4715;51.660;7.082;2023-12-04T05:36:11;2.00;99.90
5086;DHT22;4715;51.660;7.082;2023-12-04T05:38:33;2.00;99.90
5086;DHT22;4715;51.660;7.082;2023-12-04T05:40:55;2.00;99.90
5086;DHT22;4715;51.660;7.082;2023-12-04T05:43:17;2.10;99.90
5086;DHT22;4715;51.660;7.082;2023-12-04T05:45:41;2.10;99.90
5086;DHT22;4715;51.660;7.082;2023-12-04T05:48:03;2.10;99.90
5086;DHT22;4715;51.660;7.082;2023-12-04T05:50:25;2.10;99.90
5086;DHT22;4715;51.660;7.082;2023-12-04T05:52:50;2.10;99.90
5086;DHT22;4715;51.660;7.082;2023-12-04T05:55:19;2.10;99.90
5086;DHT22;4715;51.660;7.082;2023-12-04T05:57:41;2.10;99.90
5086;DHT22;4715;51.660;7.082;2023-12-04T06:00:06;2.10;99.90
5086;DHT22;4715;51.660;7.082;2023-12-04T06:02:34;2.10;99.90
5086;DHT22;4715;51.660;7.082;2023-12-04T06:04:56;2.10;99.90
5086;DHT22;4715;51.660;7.082;2023-12-04T06:07:20;2.10;99.90
5086;DHT22;4715;51.660;7.082;2023-12-04T06:09:42;2.10;99.90
5086;DHT22;4715;51.660;7.082;2023-12-04T06:12:04;2.10;99.90
5086;DHT22;4715;51.660;7.082;2023-12-04T06:14:28;2.10;99.90
5086;DHT22;4715;51.660;7.082;2023-12-04T06:16:51;2.10;99.90
5086;DHT22;4715;51.660;7.082;2023-12-04T06:19:14;2.10;99.90
5086;DHT22;4715;51.660;7.082;2023-12-04T06:21:37;2.10;99.90
5086;DHT22;4715;51.660;7.082;2023-12-04T06:24:01;2.20;99.90
5086;DHT22;4715;51.660;7.082;2023-12-04T06:26:23;2.20;99.90
5086;DHT22;4715;51.660;7.082;2023-12-04T06:28:46;2.20;99.90
5086;DHT22;4715;51.660;7.082;2023-12-04T06:31:10;2.20;99.90
5086;DHT22;4715;51.660;7.082;2023-12-04T06:33:32;2.20;99.90
5086;DHT22;4715;51.660;7.082;2023-12-04T06:35:56;2.10;99.90
5086;DHT22;4715;51.660;7.082;2023-12-04T06:38:19;2.10;99.90
5086;DHT22;4715;51.660;7.082;2023-12-04T06:40:45;2.10;99.90
5086;DHT22;4715;51.660;7.082;2023-12-04T06:43:08;2.20;99.90
5086;DHT22;4715;51.660;7.082;2023-12-04T06:45:31;2.10;99.90
5086;DHT22;4715;51.660;7.082;2023-12-04T06:47:53;2.10;99.90
5086;DHT22;4715;51.660;7.082;2023-12-04T06:50:16;2.10;99.90
5086;DHT22;4715;51.660;7.082;2023-12-04T06:52:39;2.10;99.90
5086;DHT22;4715;51.660;7.082;2023-12-04T06:55:02;2.10;99.90
5086;DHT22;4715;51.660;7.082;2023-12-04T06:57:24;2.10;99.90
5086;DHT22;4715;51.660;7.082;2023-12-04T06:59:46;2.10;99.90
5086;DHT22;4715;51.660;7.082;2023-12-04T07:02:08;2.10;99.90
5086;DHT22;4715;51.660;7.082;2023-12-04T07:04:30;2.20;99.90
5086;DHT22;4715;51.660;7.082;2023-12-04T07:06:51;2.10;99.90
5086;DHT22;4715;51.660;7.082;2023-12-04T07:09:15;2.20;99.90
5086;DHT22;4715;51.660;7.082;2023-12-04T07:11:40;2.20;99.90
5086;DHT22;4715;51.660;7.082;2023-12-04T07:14:03;2.20;99.90
5086;DHT22;4715;51.660;7.082;2023-12-04T07:16:26;2.20;99.90
5086;DHT22;4715;51.660;7.082;2023-12-04T07:18:49;2.20;99.90
5086;DHT22;4715;51.660;7.082;2023-12-04T07:21:11;2.20;99.90
5086;DHT22;4715;51.660;7.082;2023-12-04T07:23:33;2.20;99.90
5086;DHT22;4715;51.660;7.082;2023-12-04T07:25:57;2.20;99.90
5086;DHT22;4715;51.660;7.082;2023-12-04T07:28:21;2.20;99.90
5086;DHT22;4715;51.660;7.082;2023-12-04T07:30:42;2.20;99.90
5086;DHT22;4715;51.660;7.082;2023-12-04T07:33:04;2.20;99.90
5086;DHT22;4715;51.660;7.082;2023-12-04T07:35:26;2.20;99.90
5086;DHT22;4715;51.660;7.082;2023-12-04T07:37:49;2.20;99.90
5086;DHT22;4715;51.660;7.082;2023-12-04T07:40:12;2.20;99.90
5086;DHT22;4715;51.660;7.082;2023-12-04T07:42:37;2.20;99.90
5086;DHT22;4715;51.660;7.082;2023-12-04T07:44:59;2.20;99.90
5086;DHT22;4715;51.660;7.082;2023-12-04T07:47:21;2.20;99.90
5086;DHT22;4715;51.660;7.082;2023-12-04T07:49:45;2.30;99.90
5086;DHT22;4715;51.660;7.082;2023-12-04T07:52:06;2.30;99.90
5086;DHT22;4715;51.660;7.082;2023-12-04T07:54:31;2.30;99.90
5086;DHT22;4715;51.660;7.082;2023-12-04T07:56:54;2.30;99.90
5086;DHT22;4715;51.660;7.082;2023-12-04T07:59:17;2.30;99.90
5086;DHT22;4715;51.660;7.082;2023-12-04T08:01:39;2.30;99.90
5086;DHT22;4715;51.660;7.082;2023-12-04T08:04:00;2.30;99.90
5086;DHT22;4715;51.660;7.082;2023-12-04T08:06:23;2.30;99.90
5086;DHT22;4715;51.660;7.082;2023-12-04T08:08:44;2.40;99.90
5086;DHT22;4715;51.660;7.082;2023-12-04T08:11:09;2.40;99.90
5086;DHT22;4715;51.660;7.082;2023-12-04T08:13:31;2.40;99.90
5086;DHT22;4715;51.660;7.082;2023-12-04T08:15:55;2.40;99.90
5086;DHT22;4715;51.660;7.082;2023-12-04T08:18:17;2.50;99.90
5086;DHT22;4715;51.660;7.082;2023-12-04T08:20:41;2.50;99.90
5086;DHT22;4715;51.660;7.082;2023-12-04T08:23:04;2.50;99.90
5086;DHT22;4715;51.660;7.082;2023-12-04T08:25:26;2.50;99.90
5086;DHT22;4715;51.660;7.082;2023-12-04T08:27:49;2.60;99.90
5086;DHT22;4715;51.660;7.082;2023-12-04T08:30:11;2.60;99.90
5086;DHT22;4715;51.660;7.082;2023-12-04T08:32:34;2.60;99.90
5086;DHT22;4715;51.660;7.082;2023-12-04T08:34:56;2.60;99.90
5086;DHT22;4715;51.660;7.082;2023-12-04T08:37:18;2.60;99.90
5086;DHT22;4715;51.660;7.082;2023-12-04T08:39:40;2.60;99.90
5086;DHT22;4715;51.660;7.082;2023-12-04T08:42:03;2.70;99.90
5086;DHT22;4715;51.660;7.082;2023-12-04T08:44:24;2.70;99.90
5086;DHT22;4715;51.660;7.082;2023-12-04T08:46:46;2.70;99.90
5086;DHT22;4715;51.660;7.082;2023-12-04T08:49:11;2.70;99.90
5086;DHT22;4715;51.660;7.082;2023-12-04T08:51:33;2.70;99.90
5086;DHT22;4715;51.660;7.082;2023-12-04T08:53:55;2.70;99.90
5086;DHT22;4715;51.660;7.082;2023-12-04T08:56:17;2.80;99.90
5086;DHT22;4715;51.660;7.082;2023-12-04T08:58:39;2.80;99.90
5086;DHT22;4715;51.660;7.082;2023-12-04T09:01:00;2.80;99.90
5086;DHT22;4715;51.660;7.082;2023-12-04T09:03:22;2.80;99.90
5086;DHT22;4715;51.660;7.082;2023-12-04T09:05:46;2.80;99.90
5086;DHT22;4715;51.660;7.082;2023-12-04T09:08:10;2.90;99.90
5086;DHT22;4715;51.660;7.082;2023-12-04T09:10:32;2.90;99.90
5086;DHT22;4715;51.660;7.082;2023-12-04T09:12:56;2.90;99.90
5086;DHT22;4715;51.660;7.082;2023-12-04T09:15:19;2.90;99.90
5086;DHT22;4715;51.660;7.082;2023-12-04T09:17:41;2.90;99.90
5086;DHT22;4715;51.660;7.082;2023-12-04T09:20:03;2.90;99.90
5086;DHT22;4715;51.660;7.082;2023-12-04T09:22:27;2.90;99.90
5086;DHT22;4715;51.660;7.082;2023-12-04T09:24:49;2.90;99.90
5086;DHT22;4715;51.660;7.082;2023-12-04T09:27:11;3.00;99.90
5086;DHT22;4715;51.660;7.082;2023-12-04T09:29:34;3.00;99.90
5086;DHT22;4715;51.660;7.082;2023-12-04T09:31:56;3.00;99.90
5086;DHT22;4715;51.660;7.082;2023-12-04T09:34:18;3.00;99.90
5086;DHT22;4715;51.660;7.082;2023-12-04T09:36:43;3.00;99.90
5086;DHT22;4715;51.660;7.082;2023-12-04T09:39:06;3.00;99.90
5086;DHT22;4715;51.660;7.082;2023-12-04T09:41:30;3.00;99.90
5086;DHT22;4715;51.660;7.082;2023-12-04T09:43:53;3.00;99.90
5086;DHT22;4715;51.660;7.082;2023-12-04T09:46:17;3.10;99.90
5086;DHT22;4715;51.660;7.082;2023-12-04T09:48:41;3.10;99.90
5086;DHT22;4715;51.660;7.082;2023-12-04T09:51:07;3.10;99.90
5086;DHT22;4715;51.660;7.082;2023-12-04T09:53:30;3.10;99.90
5086;DHT22;4715;51.660;7.082;2023-12-04T09:55:57;3.10;99.90
5086;DHT22;4715;51.660;7.082;2023-12-04T09:58:21;3.10;99.90
5086;DHT22;4715;51.660;7.082;2023-12-04T10:00:45;3.20;99.90
5086;DHT22;4715;51.660;7.082;2023-12-04T10:03:07;3.20;99.90
5086;DHT22;4715;51.660;7.082;2023-12-04T10:05:32;3.20;99.90
5086;DHT22;4715;51.660;7.082;2023-12-04T10:07:54;3.20;99.90
5086;DHT22;4715;51.660;7.082;2023-12-04T10:10:16;3.20;99.90
5086;DHT22;4715;51.660;7.082;2023-12-04T10:12:40;3.20;99.90
5086;DHT22;4715;51.660;7.082;2023-12-04T10:15:04;3.20;99.90
5086;DHT22;4715;51.660;7.082;2023-12-04T10:17:33;3.30;99.90
5086;DHT22;4715;51.660;7.082;2023-12-04T10:20:05;3.30;99.90
5086;DHT22;4715;51.660;7.082;2023-12-04T10:22:31;3.30;99.90
5086;DHT22;4715;51.660;7.082;2023-12-04T10:24:53;3.30;99.90
5086;DHT22;4715;51.660;7.082;2023-12-04T10:27:15;3.30;99.90
5086;DHT22;4715;51.660;7.082;2023-12-04T10:29:44;3.30;99.90
5086;DHT22;4715;51.660;7.082;2023-12-04T10:32:06;3.40;99.90
5086;DHT22;4715;51.660;7.082;2023-12-04T10:34:28;3.40;99.90
5086;DHT22;4715;51.660;7.082;2023-12-04T10:36:50;3.40;99.90
5086;DHT22;4715;51.660;7.082;2023-12-04T10:39:12;3.40;99.90
5086;DHT22;4715;51.660;7.082;2023-12-04T10:41:33;3.40;99.90
5086;DHT22;4715;51.660;7.082;2023-12-04T10:43:56;3.40;99.90
5086;DHT22;4715;51.660;7.082;2023-12-04T10:46:20;3.50;99.90
5086;DHT22;4715;51.660;7.082;2023-12-04T10:48:44;3.50;99.90
5086;DHT22;4715;51.660;7.082;2023-12-04T10:51:06;3.50;99.90
5086;DHT22;4715;51.660;7.082;2023-12-04T10:53:29;3.50;99.90
5086;DHT22;4715;51.660;7.082;2023-12-04T10:55:52;3.50;99.90
5086;DHT22;4715;51.660;7.082;2023-12-04T10:58:18;3.50;99.90
5086;DHT22;4715;51.660;7.082;2023-12-04T11:00:45;3.60;99.90
5086;DHT22;4715;51.660;7.082;2023-12-04T11:03:10;3.50;99.90
5086;DHT22;4715;51.660;7.082;2023-12-04T11:05:37;3.60;99.90
5086;DHT22;4715;51.660;7.082;2023-12-04T11:08:02;3.60;99.90
5086;DHT22;4715;51.660;7.082;2023-12-04T11:10:26;3.60;99.90
5086;DHT22;4715;51.660;7.082;2023-12-04T11:12:53;3.60;99.90
5086;DHT22;4715;51.660;7.082;2023-12-04T11:15:18;3.70;99.90
5086;DHT22;4715;51.660;7.082;2023-12-04T11:17:49;3.70;99.90
5086;DHT22;4715;51.660;7.082;2023-12-04T11:20:18;3.70;99.90
5086;DHT22;4715;51.660;7.082;2023-12-04T11:22:40;3.70;99.90
5086;DHT22;4715;51.660;7.082;2023-12-04T11:25:08;3.70;99.90
5086;DHT22;4715;51.660;7.082;2023-12-04T11:27:32;3.80;99.90
5086;DHT22;4715;51.660;7.082;2023-12-04T11:29:54;3.80;99.90
5086;DHT22;4715;51.660;7.082;2023-12-04T11:32:17;3.80;99.90
5086;DHT22;4715;51.660;7.082;2023-12-04T11:34:47;3.80;99.90
5086;DHT22;4715;51.660;7.082;2023-12-04T11:37:11;3.90;99.90
5086;DHT22;4715;51.660;7.082;2023-12-04T11:39:34;3.90;99.90
5086;DHT22;4715;51.660;7.082;2023-12-04T11:41:59;3.90;99.90
5086;DHT22;4715;51.660;7.082;2023-12-04T11:44:21;3.90;99.90
5086;DHT22;4715;51.660;7.082;2023-12-04T11:46:56;3.90;99.90
5086;DHT22;4715;51.660;7.082;2023-12-04T11:49:28;4.00;99.90
5086;DHT22;4715;51.660;7.082;2023-12-04T11:51:50;4.00;99.90
5086;DHT22;4715;51.660;7.082;2023-12-04T11:54:17;3.90;99.90
5086;DHT22;4715;51.660;7.082;2023-12-04T11:56:39;3.90;99.90
5086;DHT22;4715;51.660;7.082;2023-12-04T11:59:02;3.90;99.90
5086;DHT22;4715;51.660;7.082;2023-12-04T12:01:24;3.90;99.90
5086;DHT22;4715;51.660;7.082;2023-12-04T12:03:50;3.90;99.90
5086;DHT22;4715;51.660;7.082;2023-12-04T12:06:12;3.90;99.90
5086;DHT22;4715;51.660;7.082;2023-12-04T12:08:35;3.90;99.90
5086;DHT22;4715;51.660;7.082;2023-12-04T12:10:58;3.90;99.90
5086;DHT22;4715;51.660;7.082;2023-12-04T12:13:20;3.90;99.90
5086;DHT22;4715;51.660;7.082;2023-12-04T12:15:46;3.90;99.90
5086;DHT22;4715;51.660;7.082;2023-12-04T12:18:11;3.90;99.90
5086;DHT22;4715;51.660;7.082;2023-12-04T12:20:36;3.90;99.90
5086;DHT22;4715;51.660;7.082;2023-12-04T12:22:59;4.00;99.90
5086;DHT22;4715;51.660;7.082;2023-12-04T12:25:22;3.90;99.90
5086;DHT22;4715;51.660;7.082;2023-12-04T12:27:47;4.00;99.90
5086;DHT22;4715;51.660;7.082;2023-12-04T12:30:11;3.90;99.90
5086;DHT22;4715;51.660;7.082;2023-12-04T12:32:33;3.90;99.90
5086;DHT22;4715;51.660;7.082;2023-12-04T12:34:56;3.90;99.90
5086;DHT22;4715;51.660;7.082;2023-12-04T12:37:18;3.90;99.90
5086;DHT22;4715;51.660;7.082;2023-12-04T12:39:40;3.90;99.90
5086;DHT22;4715;51.660;7.082;2023-12-04T12:42:02;3.90;99.90
5086;DHT22;4715;51.660;7.082;2023-12-04T12:44:26;3.80;99.90
5086;DHT22;4715;51.660;7.082;2023-12-04T12:46:48;3.80;99.90
5086;DHT22;4715;51.660;7.082;2023-12-04T12:49:14;3.80;99.90
5086;DHT22;4715;51.660;7.082;2023-12-04T12:51:36;3.70;99.90
5086;DHT22;4715;51.660;7.082;2023-12-04T12:53:58;3.70;99.90
5086;DHT22;4715;51.660;7.082;2023-12-04T12:56:20;3.70;99.90
5086;DHT22;4715;51.660;7.082;2023-12-04T12:58:42;3.60;99.90
5086;DHT22;4715;51.660;7.082;2023-12-04T13:01:09;3.60;99.90
5086;DHT22;4715;51.660;7.082;2023-12-04T13:03:31;3.60;99.90
5086;DHT22;4715;51.660;7.082;2023-12-04T13:05:58;3.60;99.90
5086;DHT22;4715;51.660;7.082;2023-12-04T13:08:20;3.60;99.90
5086;DHT22;4715;51.660;7.082;2023-12-04T13:10:42;3.60;99.90
5086;DHT22;4715;51.660;7.082;2023-12-04T13:13:08;3.60;99.90
5086;DHT22;4715;51.660;7.082;2023-12-04T13:15:30;3.60;99.90
5086;DHT22;4715;51.660;7.082;2023-12-04T13:17:53;3.60;99.90
5086;DHT22;4715;51.660;7.082;2023-12-04T13:20:20;3.60;99.90
5086;DHT22;4715;51.660;7.082;2023-12-04T13:22:44;3.60;99.90
5086;DHT22;4715;51.660;7.082;2023-12-04T13:25:06;3.60;99.90
5086;DHT22;4715;51.660;7.082;2023-12-04T13:27:30;3.60;99.90
5086;DHT22;4715;51.660;7.082;2023-12-04T13:29:52;3.60;99.90
5086;DHT22;4715;51.660;7.082;2023-12-04T13:32:14;3.60;99.90
5086;DHT22;4715;51.660;7.082;2023-12-04T13:34:37;3.60;99.90
5086;DHT22;4715;51.660;7.082;2023-12-04T13:36:59;3.60;99.90
5086;DHT22;4715;51.660;7.082;2023-12-04T13:39:21;3.60;99.90
5086;DHT22;4715;51.660;7.082;2023-12-04T13:41:48;3.60;99.90
5086;DHT22;4715;51.660;7.082;2023-12-04T13:44:27;3.60;99.90
5086;DHT22;4715;51.660;7.082;2023-12-04T13:46:50;3.60;99.90
5086;DHT22;4715;51.660;7.082;2023-12-04T13:49:12;3.60;99.90
5086;DHT22;4715;51.660;7.082;2023-12-04T13:51:36;3.60;99.90
5086;DHT22;4715;51.660;7.082;2023-12-04T13:54:00;3.60;99.90
5086;DHT22;4715;51.660;7.082;2023-12-04T13:56:34;3.60;99.90
5086;DHT22;4715;51.660;7.082;2023-12-04T13:59:04;3.50;99.90
5086;DHT22;4715;51.660;7.082;2023-12-04T14:01:28;3.50;99.90
5086;DHT22;4715;51.660;7.082;2023-12-04T14:03:51;3.40;99.90
5086;DHT22;4715;51.660;7.082;2023-12-04T14:06:13;3.40;99.90
5086;DHT22;4715;51.660;7.082;2023-12-04T14:08:38;3.40;99.90
5086;DHT22;4715;51.660;7.082;2023-12-04T14:11:01;3.40;99.90
5086;DHT22;4715;51.660;7.082;2023-12-04T14:13:26;3.40;99.90
5086;DHT22;4715;51.660;7.082;2023-12-04T14:15:48;3.40;99.90
5086;DHT22;4715;51.660;7.082;2023-12-04T14:18:10;3.40;99.90
5086;DHT22;4715;51.660;7.082;2023-12-04T14:20:32;3.40;99.90
5086;DHT22;4715;51.660;7.082;2023-12-04T14:22:54;3.40;99.90
5086;DHT22;4715;51.660;7.082;2023-12-04T14:25:18;3.40;99.90
5086;DHT22;4715;51.660;7.082;2023-12-04T14:27:40;3.30;99.90
5086;DHT22;4715;51.660;7.082;2023-12-04T14:30:07;3.30;99.90
5086;DHT22;4715;51.660;7.082;2023-12-04T14:32:31;3.30;99.90
5086;DHT22;4715;51.660;7.082;2023-12-04T14:34:55;3.30;99.90
5086;DHT22;4715;51.660;7.082;2023-12-04T14:37:20;3.30;99.90
5086;DHT22;4715;51.660;7.082;2023-12-04T14:39:44;3.40;99.90
5086;DHT22;4715;51.660;7.082;2023-12-04T14:42:07;3.40;99.90
5086;DHT22;4715;51.660;7.082;2023-12-04T14:44:29;3.30;99.90
5086;DHT22;4715;51.660;7.082;2023-12-04T14:46:52;3.30;99.90
5086;DHT22;4715;51.660;7.082;2023-12-04T14:49:15;3.30;99.90
5086;DHT22;4715;51.660;7.082;2023-12-04T14:51:38;3.30;99.90
5086;DHT22;4715;51.660;7.082;2023-12-04T14:54:00;3.30;99.90
5086;DHT22;4715;51.660;7.082;2023-12-04T14:56:41;3.30;99.90
5086;DHT22;4715;51.660;7.082;2023-12-04T14:59:27;3.20;99.90
5086;DHT22;4715;51.660;7.082;2023-12-04T15:02:07;3.20;99.90
5086;DHT22;4715;51.660;7.082;2023-12-04T15:04:55;3.20;99.90
5086;DHT22;4715;51.660;7.082;2023-12-04T15:07:35;3.20;99.90
5086;DHT22;4715;51.660;7.082;2023-12-04T15:10:36;3.20;99.90
5086;DHT22;4715;51.660;7.082;2023-12-04T15:13:24;3.30;99.90
5086;DHT22;4715;51.660;7.082;2023-12-04T15:16:10;3.30;99.90
5086;DHT22;4715;51.660;7.082;2023-12-04T15:18:47;3.30;99.90
5086;DHT22;4715;51.660;7.082;2023-12-04T15:21:44;3.30;99.90
5086;DHT22;4715;51.660;7.082;2023-12-04T15:24:05;3.30;99.90
5086;DHT22;4715;51.660;7.082;2023-12-04T15:26:27;3.40;99.90
5086;DHT22;4715;51.660;7.082;2023-12-04T15:28:49;3.40;99.90
5086;DHT22;4715;51.660;7.082;2023-12-04T15:31:12;3.40;99.90
5086;DHT22;4715;51.660;7.082;2023-12-04T15:33:33;3.40;99.90
5086;DHT22;4715;51.660;7.082;2023-12-04T15:35:55;3.40;99.90
5086;DHT22;4715;51.660;7.082;2023-12-04T15:38:20;3.40;99.90
5086;DHT22;4715;51.660;7.082;2023-12-04T15:40:41;3.50;99.90
5086;DHT22;4715;51.660;7.082;2023-12-04T15:43:03;3.50;99.90
5086;DHT22;4715;51.660;7.082;2023-12-04T15:45:24;3.50;99.90
5086;DHT22;4715;51.660;7.082;2023-12-04T15:47:47;3.40;99.90
5086;DHT22;4715;51.660;7.082;2023-12-04T15:50:09;3.50;99.90
5086;DHT22;4715;51.660;7.082;2023-12-04T15:52:31;3.50;99.90